sensor_id;sensor_type;location;lat;lon;timestamp;temperature;humidity
20839;DHT22;10580;51.092;6.828;2023-02-02T00:01:35;7.50;99.90
20839;DHT22;10580;51.092;6.828;2023-02-02T00:04:01;7.50;99.90
20839;DHT22;10580;51.092;6.828;2023-02-02T00:06:28;7.50;99.90
20839;DHT22;10580;51.092;6.828;2023-02-02T00:08:59;7.50;99.90
20839;DHT22;10580;51.092;6.828;2023-02-02T00:11:25;7.50;99.90
20839;DHT22;10580;51.092;6.828;2023-02-02T00:13:51;7.50;99.90
20839;DHT22;10580;51.092;6.828;2023-02-02T00:18:52;7.50;99.90
20839;DHT22;10580;51.092;6.828;2023-02-02T00:21:18;7.50;99.90
20839;DHT22;10580;51.092;6.828;2023-02-02T00:23:43;7.50;99.90
20839;DHT22;10580;51.092;6.828;2023-02-02T00:26:09;7.50;99.90
20839;DHT22;10580;51.092;6.828;2023-02-02T00:28:35;7.50;99.90
20839;DHT22;10580;51.092;6.828;2023-02-02T00:31:00;7.50;99.90
20839;DHT22;10580;51.092;6.828;2023-02-02T00:33:26;7.50;99.90
20839;DHT22;10580;51.092;6.828;2023-02-02T00:35:52;7.50;99.90
20839;DHT22;10580;51.092;6.828;2023-02-02T00:38:18;7.50;99.90
20839;DHT22;10580;51.092;6.828;2023-02-02T00:40:43;7.50;99.90
20839;DHT22;10580;51.092;6.828;2023-02-02T00:43:09;7.50;99.90
20839;DHT22;10580;51.092;6.828;2023-02-02T00:45:35;7.50;99.90
20839;DHT22;10580;51.092;6.828;2023-02-02T00:48:01;7.50;99.90
20839;DHT22;10580;51.092;6.828;2023-02-02T00:50:27;7.50;99.90
20839;DHT22;10580;51.092;6.828;2023-02-02T00:52:53;7.50;99.90
20839;DHT22;10580;51.092;6.828;2023-02-02T00:55:19;7.50;99.90
20839;DHT22;10580;51.092;6.828;2023-02-02T00:57:45;7.50;99.90
20839;DHT22;10580;51.092;6.828;2023-02-02T01:00:22;7.50;99.90
20839;DHT22;10580;51.092;6.828;2023-02-02T01:02:49;7.50;99.90
20839;DHT22;10580;51.092;6.828;2023-02-02T01:05:15;7.50;99.90
20839;DHT22;10580;51.092;6.828;2023-02-02T01:07:41;7.60;99.90
20839;DHT22;10580;51.092;6.828;2023-02-02T01:10:10;7.60;99.90
20839;DHT22;10580;51.092;6.828;2023-02-02T01:12:37;7.60;99.90
20839;DHT22;10580;51.092;6.828;2023-02-02T01:15:03;7.60;99.90
20839;DHT22;10580;51.092;6.828;2023-02-02T01:17:29;7.60;99.90
20839;DHT22;10580;51.092;6.828;2023-02-02T01:19:54;7.60;99.90
20839;DHT22;10580;51.092;6.828;2023-02-02T01:22:20;7.60;99.90
20839;DHT22;10580;51.092;6.828;2023-02-02T01:24:46;7.60;99.90
20839;DHT22;10580;51.092;6.828;2023-02-02T01:27:12;7.60;99.90
20839;DHT22;10580;51.092;6.828;2023-02-02T01:29:37;7.60;99.90
20839;DHT22;10580;51.092;6.828;2023-02-02T01:32:03;7.50;99.90
20839;DHT22;10580;51.092;6.828;2023-02-02T01:34:29;7.50;99.90
20839;DHT22;10580;51.092;6.828;2023-02-02T01:37:01;7.50;99.90
20839;DHT22;10580;51.092;6.828;2023-02-02T01:39:26;7.50;99.90
20839;DHT22;10580;51.092;6.828;2023-02-02T01:41:52;7.40;99.90
20839;DHT22;10580;51.092;6.828;2023-02-02T01:45:01;7.40;99.90
20839;DHT22;10580;51.092;6.828;2023-02-02T01:47:32;7.30;99.90
20839;DHT22;10580;51.092;6.828;2023-02-02T01:49:59;7.30;99.90
20839;DHT22;10580;51.092;6.828;2023-02-02T01:52:26;7.30;99.90
20839;DHT22;10580;51.092;6.828;2023-02-02T01:55:05;7.30;99.90
20839;DHT22;10580;51.092;6.828;2023-02-02T02:00:13;7.20;99.90
20839;DHT22;10580;51.092;6.828;2023-02-02T02:02:41;7.20;99.90
20839;DHT22;10580;51.092;6.828;2023-02-02T02:05:10;7.20;99.90
20839;DHT22;10580;51.092;6.828;2023-02-02T02:07:38;7.20;99.90
20839;DHT22;10580;51.092;6.828;2023-02-02T02:10:04;7.20;99.90
20839;DHT22;10580;51.092;6.828;2023-02-02T02:12:30;7.20;99.90
20839;DHT22;10580;51.092;6.828;2023-02-02T02:14:56;7.20;99.90
20839;DHT22;10580;51.092;6.828;2023-02-02T02:21:09;7.20;99.90
20839;DHT22;10580;51.092;6.828;2023-02-02T02:37:39;7.20;99.90
20839;DHT22;10580;51.092;6.828;2023-02-02T02:40:25;7.20;99.90
20839;DHT22;10580;51.092;6.828;2023-02-02T02:43:14;7.20;99.90
20839;DHT22;10580;51.092;6.828;2023-02-02T02:45:41;7.20;99.90
20839;DHT22;10580;51.092;6.828;2023-02-02T02:48:09;7.20;99.90
20839;DHT22;10580;51.092;6.828;2023-02-02T02:50:36;7.20;99.90
20839;DHT22;10580;51.092;6.828;2023-02-02T02:53:12;7.20;99.90
20839;DHT22;10580;51.092;6.828;2023-02-02T03:01:23;7.30;99.90
20839;DHT22;10580;51.092;6.828;2023-02-02T03:04:09;7.30;99.90
20839;DHT22;10580;51.092;6.828;2023-02-02T03:06:46;7.20;99.90
20839;DHT22;10580;51.092;6.828;2023-02-02T03:09:15;7.20;99.90
20839;DHT22;10580;51.092;6.828;2023-02-02T03:11:43;7.30;99.90
20839;DHT22;10580;51.092;6.828;2023-02-02T03:14:08;7.30;99.90
20839;DHT22;10580;51.092;6.828;2023-02-02T03:16:35;7.30;99.90
20839;DHT22;10580;51.092;6.828;2023-02-02T03:19:02;7.30;99.90
20839;DHT22;10580;51.092;6.828;2023-02-02T03:21:29;7.30;99.90
20839;DHT22;10580;51.092;6.828;2023-02-02T03:23:55;7.30;99.90
20839;DHT22;10580;51.092;6.828;2023-02-02T03:26:20;7.30;99.90
20839;DHT22;10580;51.092;6.828;2023-02-02T03:28:47;7.30;99.90
20839;DHT22;10580;51.092;6.828;2023-02-02T03:31:13;7.30;99.90
20839;DHT22;10580;51.092;6.828;2023-02-02T03:33:39;7.30;99.90
20839;DHT22;10580;51.092;6.828;2023-02-02T03:36:05;7.30;99.90
20839;DHT22;10580;51.092;6.828;2023-02-02T03:38:30;7.30;99.90
20839;DHT22;10580;51.092;6.828;2023-02-02T03:40:56;7.30;99.90
20839;DHT22;10580;51.092;6.828;2023-02-02T03:43:22;7.30;99.90
20839;DHT22;10580;51.092;6.828;2023-02-02T03:45:55;7.30;99.90
20839;DHT22;10580;51.092;6.828;2023-02-02T03:48:20;7.20;99.90
20839;DHT22;10580;51.092;6.828;2023-02-02T03:50:46;7.30;99.90
20839;DHT22;10580;51.092;6.828;2023-02-02T03:53:12;7.30;99.90
20839;DHT22;10580;51.092;6.828;2023-02-02T03:55:38;7.20;99.90
20839;DHT22;10580;51.092;6.828;2023-02-02T03:58:04;7.30;99.90
20839;DHT22;10580;51.092;6.828;2023-02-02T04:00:30;7.30;99.90
20839;DHT22;10580;51.092;6.828;2023-02-02T04:02:56;7.20;99.90
20839;DHT22;10580;51.092;6.828;2023-02-02T04:05:21;7.20;99.90
20839;DHT22;10580;51.092;6.828;2023-02-02T04:07:47;7.20;99.90
20839;DHT22;10580;51.092;6.828;2023-02-02T04:10:13;7.20;99.90
20839;DHT22;10580;51.092;6.828;2023-02-02T04:12:39;7.30;99.90
20839;DHT22;10580;51.092;6.828;2023-02-02T04:15:05;7.20;99.90
20839;DHT22;10580;51.092;6.828;2023-02-02T04:17:31;7.20;99.90
20839;DHT22;10580;51.092;6.828;2023-02-02T04:19:56;7.20;99.90
20839;DHT22;10580;51.092;6.828;2023-02-02T04:22:23;7.20;99.90
20839;DHT22;10580;51.092;6.828;2023-02-02T04:24:49;7.20;99.90
20839;DHT22;10580;51.092;6.828;2023-02-02T04:27:15;7.20;99.90
20839;DHT22;10580;51.092;6.828;2023-02-02T04:29:40;7.20;99.90
20839;DHT22;10580;51.092;6.828;2023-02-02T04:32:06;7.20;99.90
20839;DHT22;10580;51.092;6.828;2023-02-02T04:34:31;7.30;99.90
20839;DHT22;10580;51.092;6.828;2023-02-02T04:36:57;7.20;99.90
20839;DHT22;10580;51.092;6.828;2023-02-02T04:39:23;7.20;99.90
20839;DHT22;10580;51.092;6.828;2023-02-02T04:41:48;7.20;99.90
20839;DHT22;10580;51.092;6.828;2023-02-02T04:44:14;7.20;99.90
20839;DHT22;10580;51.092;6.828;2023-02-02T04:46:44;7.20;99.90
20839;DHT22;10580;51.092;6.828;2023-02-02T04:49:10;7.10;99.90
20839;DHT22;10580;51.092;6.828;2023-02-02T04:51:37;7.10;99.90
20839;DHT22;10580;51.092;6.828;2023-02-02T04:54:04;7.10;99.90
20839;DHT22;10580;51.092;6.828;2023-02-02T04:56:29;7.10;99.90
20839;DHT22;10580;51.092;6.828;2023-02-02T04:58:55;7.10;99.90
20839;DHT22;10580;51.092;6.828;2023-02-02T05:01:26;7.00;99.90
20839;DHT22;10580;51.092;6.828;2023-02-02T05:03:53;7.10;99.90
20839;DHT22;10580;51.092;6.828;2023-02-02T05:06:19;7.10;99.90
20839;DHT22;10580;51.092;6.828;2023-02-02T05:08:46;7.10;99.90
20839;DHT22;10580;51.092;6.828;2023-02-02T05:11:16;7.10;99.90
20839;DHT22;10580;51.092;6.828;2023-02-02T05:13:46;7.10;99.90
20839;DHT22;10580;51.092;6.828;2023-02-02T05:16:13;7.10;99.90
20839;DHT22;10580;51.092;6.828;2023-02-02T05:18:40;7.10;99.90
20839;DHT22;10580;51.092;6.828;2023-02-02T05:21:06;7.10;99.90
20839;DHT22;10580;51.092;6.828;2023-02-02T05:23:31;7.10;99.90
20839;DHT22;10580;51.092;6.828;2023-02-02T05:25:57;7.10;99.90
20839;DHT22;10580;51.092;6.828;2023-02-02T05:28:23;7.10;99.90
20839;DHT22;10580;51.092;6.828;2023-02-02T05:30:49;7.10;99.90
20839;DHT22;10580;51.092;6.828;2023-02-02T05:33:15;7.10;99.90
20839;DHT22;10580;51.092;6.828;2023-02-02T05:35:44;7.10;99.90
20839;DHT22;10580;51.092;6.828;2023-02-02T05:38:10;7.10;99.90
20839;DHT22;10580;51.092;6.828;2023-02-02T05:40:36;7.10;99.90
20839;DHT22;10580;51.092;6.828;2023-02-02T05:43:01;7.10;99.90
20839;DHT22;10580;51.092;6.828;2023-02-02T05:45:27;7.10;99.90
20839;DHT22;10580;51.092;6.828;2023-02-02T05:47:53;7.10;99.90
20839;DHT22;10580;51.092;6.828;2023-02-02T05:50:20;7.10;99.90
20839;DHT22;10580;51.092;6.828;2023-02-02T05:52:46;7.10;99.90
20839;DHT22;10580;51.092;6.828;2023-02-02T05:55:12;7.10;99.90
20839;DHT22;10580;51.092;6.828;2023-02-02T05:57:38;7.10;99.90
20839;DHT22;10580;51.092;6.828;2023-02-02T06:00:04;7.10;99.90
20839;DHT22;10580;51.092;6.828;2023-02-02T06:02:30;7.10;99.90
20839;DHT22;10580;51.092;6.828;2023-02-02T06:04:55;7.10;99.90
20839;DHT22;10580;51.092;6.828;2023-02-02T06:07:21;7.10;99.90
20839;DHT22;10580;51.092;6.828;2023-02-02T06:09:46;7.10;99.90
20839;DHT22;10580;51.092;6.828;2023-02-02T06:12:12;7.10;99.90
20839;DHT22;10580;51.092;6.828;2023-02-02T06:14:38;7.10;99.90
20839;DHT22;10580;51.092;6.828;2023-02-02T06:17:03;7.10;99.90
20839;DHT22;10580;51.092;6.828;2023-02-02T06:19:31;7.10;99.90
20839;DHT22;10580;51.092;6.828;2023-02-02T06:21:56;7.10;99.90
20839;DHT22;10580;51.092;6.828;2023-02-02T06:24:22;7.10;99.90
20839;DHT22;10580;51.092;6.828;2023-02-02T06:26:48;7.10;99.90
20839;DHT22;10580;51.092;6.828;2023-02-02T06:29:14;7.10;99.90
20839;DHT22;10580;51.092;6.828;2023-02-02T06:31:40;7.10;99.90
20839;DHT22;10580;51.092;6.828;2023-02-02T06:34:05;7.00;99.90
20839;DHT22;10580;51.092;6.828;2023-02-02T06:36:32;7.10;99.90
20839;DHT22;10580;51.092;6.828;2023-02-02T06:38:58;7.10;99.90
20839;DHT22;10580;51.092;6.828;2023-02-02T06:41:24;7.10;99.90
20839;DHT22;10580;51.092;6.828;2023-02-02T06:43:49;7.00;99.90
20839;DHT22;10580;51.092;6.828;2023-02-02T06:46:16;7.10;99.90
20839;DHT22;10580;51.092;6.828;2023-02-02T06:48:41;7.00;99.90
20839;DHT22;10580;51.092;6.828;2023-02-02T06:51:07;7.00;99.90
20839;DHT22;10580;51.092;6.828;2023-02-02T06:53:33;7.00;99.90
20839;DHT22;10580;51.092;6.828;2023-02-02T06:56:02;7.00;99.90
20839;DHT22;10580;51.092;6.828;2023-02-02T06:58:37;7.00;99.90
20839;DHT22;10580;51.092;6.828;2023-02-02T07:01:07;7.00;99.90
20839;DHT22;10580;51.092;6.828;2023-02-02T07:03:32;7.00;99.90
20839;DHT22;10580;51.092;6.828;2023-02-02T07:05:59;7.00;99.90
20839;DHT22;10580;51.092;6.828;2023-02-02T07:08:34;7.00;99.90
20839;DHT22;10580;51.092;6.828;2023-02-02T07:10:59;7.00;99.90
20839;DHT22;10580;51.092;6.828;2023-02-02T07:13:25;7.00;99.90
20839;DHT22;10580;51.092;6.828;2023-02-02T07:15:50;7.00;99.90
20839;DHT22;10580;51.092;6.828;2023-02-02T07:18:16;7.00;99.90
20839;DHT22;10580;51.092;6.828;2023-02-02T07:20:41;7.00;99.90
20839;DHT22;10580;51.092;6.828;2023-02-02T07:23:07;7.00;99.90
20839;DHT22;10580;51.092;6.828;2023-02-02T07:25:32;7.00;99.90
20839;DHT22;10580;51.092;6.828;2023-02-02T07:27:58;7.00;99.90
20839;DHT22;10580;51.092;6.828;2023-02-02T07:30:24;7.00;99.90
20839;DHT22;10580;51.092;6.828;2023-02-02T07:32:54;7.00;99.90
20839;DHT22;10580;51.092;6.828;2023-02-02T07:35:19;7.00;99.90
20839;DHT22;10580;51.092;6.828;2023-02-02T07:37:50;7.00;99.90
20839;DHT22;10580;51.092;6.828;2023-02-02T07:40:16;7.00;99.90
20839;DHT22;10580;51.092;6.828;2023-02-02T07:42:45;7.00;99.90
20839;DHT22;10580;51.092;6.828;2023-02-02T07:45:11;7.10;99.90
20839;DHT22;10580;51.092;6.828;2023-02-02T07:47:36;7.00;99.90
20839;DHT22;10580;51.092;6.828;2023-02-02T07:50:02;7.00;99.90
20839;DHT22;10580;51.092;6.828;2023-02-02T07:52:37;7.10;99.90
20839;DHT22;10580;51.092;6.828;2023-02-02T07:55:03;7.00;99.90
20839;DHT22;10580;51.092;6.828;2023-02-02T07:57:28;7.00;99.90
20839;DHT22;10580;51.092;6.828;2023-02-02T07:59:54;7.10;99.90
20839;DHT22;10580;51.092;6.828;2023-02-02T08:02:20;7.10;99.90
20839;DHT22;10580;51.092;6.828;2023-02-02T08:04:45;7.10;99.90
20839;DHT22;10580;51.092;6.828;2023-02-02T08:07:11;7.10;99.90
20839;DHT22;10580;51.092;6.828;2023-02-02T08:09:37;7.10;99.90
20839;DHT22;10580;51.092;6.828;2023-02-02T08:12:03;7.10;99.90
20839;DHT22;10580;51.092;6.828;2023-02-02T08:14:28;7.10;99.90
20839;DHT22;10580;51.092;6.828;2023-02-02T08:16:54;7.20;99.90
20839;DHT22;10580;51.092;6.828;2023-02-02T08:19:20;7.20;99.90
20839;DHT22;10580;51.092;6.828;2023-02-02T08:21:45;7.20;99.90
20839;DHT22;10580;51.092;6.828;2023-02-02T08:24:11;7.20;99.90
20839;DHT22;10580;51.092;6.828;2023-02-02T08:26:36;7.20;99.90
20839;DHT22;10580;51.092;6.828;2023-02-02T08:29:05;7.20;99.90
20839;DHT22;10580;51.092;6.828;2023-02-02T08:31:34;7.20;99.90
20839;DHT22;10580;51.092;6.828;2023-02-02T08:34:01;7.10;99.90
20839;DHT22;10580;51.092;6.828;2023-02-02T08:36:28;7.20;99.90
20839;DHT22;10580;51.092;6.828;2023-02-02T08:38:54;7.20;99.90
20839;DHT22;10580;51.092;6.828;2023-02-02T08:41:22;7.20;99.90
20839;DHT22;10580;51.092;6.828;2023-02-02T08:43:48;7.20;99.90
20839;DHT22;10580;51.092;6.828;2023-02-02T08:46:16;7.20;99.90
20839;DHT22;10580;51.092;6.828;2023-02-02T08:48:52;7.20;99.90
20839;DHT22;10580;51.092;6.828;2023-02-02T08:51:18;7.20;99.90
20839;DHT22;10580;51.092;6.828;2023-02-02T08:53:45;7.20;99.90
20839;DHT22;10580;51.092;6.828;2023-02-02T08:56:16;7.20;99.90
20839;DHT22;10580;51.092;6.828;2023-02-02T08:58:52;7.20;99.90
20839;DHT22;10580;51.092;6.828;2023-02-02T09:01:29;7.20;99.90
20839;DHT22;10580;51.092;6.828;2023-02-02T09:03:57;7.30;99.90
20839;DHT22;10580;51.092;6.828;2023-02-02T09:06:42;7.30;99.90
20839;DHT22;10580;51.092;6.828;2023-02-02T09:09:12;7.40;99.90
20839;DHT22;10580;51.092;6.828;2023-02-02T09:11:38;7.40;99.90
20839;DHT22;10580;51.092;6.828;2023-02-02T09:14:09;7.40;99.90
20839;DHT22;10580;51.092;6.828;2023-02-02T09:16:38;7.40;99.90
20839;DHT22;10580;51.092;6.828;2023-02-02T09:19:04;7.40;99.90
20839;DHT22;10580;51.092;6.828;2023-02-02T09:21:32;7.40;99.90
20839;DHT22;10580;51.092;6.828;2023-02-02T09:24:05;7.40;99.90
20839;DHT22;10580;51.092;6.828;2023-02-02T09:26:31;7.40;99.90
20839;DHT22;10580;51.092;6.828;2023-02-02T09:28:59;7.40;99.90
20839;DHT22;10580;51.092;6.828;2023-02-02T09:31:30;7.40;99.90
20839;DHT22;10580;51.092;6.828;2023-02-02T09:34:00;7.40;99.90
20839;DHT22;10580;51.092;6.828;2023-02-02T09:36:33;7.30;99.90
20839;DHT22;10580;51.092;6.828;2023-02-02T09:39:19;7.30;99.90
20839;DHT22;10580;51.092;6.828;2023-02-02T09:44:58;7.30;99.90
20839;DHT22;10580;51.092;6.828;2023-02-02T09:50:41;7.30;99.90
20839;DHT22;10580;51.092;6.828;2023-02-02T09:55:38;7.30;99.90
20839;DHT22;10580;51.092;6.828;2023-02-02T09:58:35;7.30;99.90
20839;DHT22;10580;51.092;6.828;2023-02-02T10:01:21;7.30;99.90
20839;DHT22;10580;51.092;6.828;2023-02-02T10:04:13;7.30;99.90
20839;DHT22;10580;51.092;6.828;2023-02-02T10:06:51;7.20;99.90
20839;DHT22;10580;51.092;6.828;2023-02-02T10:09:36;7.30;99.90
20839;DHT22;10580;51.092;6.828;2023-02-02T10:12:45;7.30;99.90
20839;DHT22;10580;51.092;6.828;2023-02-02T10:22:06;7.40;99.90
20839;DHT22;10580;51.092;6.828;2023-02-02T10:24:37;7.40;99.90
20839;DHT22;10580;51.092;6.828;2023-02-02T10:27:14;7.40;99.90
20839;DHT22;10580;51.092;6.828;2023-02-02T10:30:00;7.40;99.90
20839;DHT22;10580;51.092;6.828;2023-02-02T10:35:20;7.50;99.90
20839;DHT22;10580;51.092;6.828;2023-02-02T10:41:44;7.60;99.90
20839;DHT22;10580;51.092;6.828;2023-02-02T10:51:20;7.70;99.90
20839;DHT22;10580;51.092;6.828;2023-02-02T10:53:52;7.70;99.90
20839;DHT22;10580;51.092;6.828;2023-02-02T10:56:36;7.80;99.90
20839;DHT22;10580;51.092;6.828;2023-02-02T10:59:29;7.80;99.90
20839;DHT22;10580;51.092;6.828;2023-02-02T11:02:00;7.90;99.90
20839;DHT22;10580;51.092;6.828;2023-02-02T11:04:34;7.90;99.90
20839;DHT22;10580;51.092;6.828;2023-02-02T11:07:35;7.90;99.90
20839;DHT22;10580;51.092;6.828;2023-02-02T11:10:04;7.80;99.90
20839;DHT22;10580;51.092;6.828;2023-02-02T11:12:33;7.90;99.90
20839;DHT22;10580;51.092;6.828;2023-02-02T11:15:21;7.90;99.90
20839;DHT22;10580;51.092;6.828;2023-02-02T11:18:28;7.90;99.90
20839;DHT22;10580;51.092;6.828;2023-02-02T11:31:31;7.90;99.90
20839;DHT22;10580;51.092;6.828;2023-02-02T11:34:22;8.00;99.90
20839;DHT22;10580;51.092;6.828;2023-02-02T11:36:58;8.00;99.90
20839;DHT22;10580;51.092;6.828;2023-02-02T11:39:25;8.00;99.90
20839;DHT22;10580;51.092;6.828;2023-02-02T11:42:09;8.10;99.90
20839;DHT22;10580;51.092;6.828;2023-02-02T11:44:37;8.10;99.90
20839;DHT22;10580;51.092;6.828;2023-02-02T11:47:05;8.10;99.90
20839;DHT22;10580;51.092;6.828;2023-02-02T11:49:37;8.20;99.90
20839;DHT22;10580;51.092;6.828;2023-02-02T11:52:15;8.20;99.90
20839;DHT22;10580;51.092;6.828;2023-02-02T11:54:49;8.20;99.90
20839;DHT22;10580;51.092;6.828;2023-02-02T11:57:44;8.30;99.90
20839;DHT22;10580;51.092;6.828;2023-02-02T12:00:19;8.30;99.90
20839;DHT22;10580;51.092;6.828;2023-02-02T12:03:24;8.40;99.90
20839;DHT22;10580;51.092;6.828;2023-02-02T12:31:46;8.60;99.90
20839;DHT22;10580;51.092;6.828;2023-02-02T12:45:19;8.70;99.90
20839;DHT22;10580;51.092;6.828;2023-02-02T12:57:13;8.80;99.90
20839;DHT22;10580;51.092;6.828;2023-02-02T13:08:16;8.90;99.90
20839;DHT22;10580;51.092;6.828;2023-02-02T13:10:56;8.90;99.90
20839;DHT22;10580;51.092;6.828;2023-02-02T13:13:30;8.90;99.90
20839;DHT22;10580;51.092;6.828;2023-02-02T13:16:09;8.90;99.90
20839;DHT22;10580;51.092;6.828;2023-02-02T13:18:54;8.90;99.90
20839;DHT22;10580;51.092;6.828;2023-02-02T13:21:28;8.90;99.90
20839;DHT22;10580;51.092;6.828;2023-02-02T13:23:59;8.90;99.90
20839;DHT22;10580;51.092;6.828;2023-02-02T13:26:35;8.80;99.90
20839;DHT22;10580;51.092;6.828;2023-02-02T13:29:21;8.80;99.90
20839;DHT22;10580;51.092;6.828;2023-02-02T13:31:58;8.80;99.90
20839;DHT22;10580;51.092;6.828;2023-02-02T13:34:48;8.80;99.90
20839;DHT22;10580;51.092;6.828;2023-02-02T13:39:54;8.80;99.90
20839;DHT22;10580;51.092;6.828;2023-02-02T13:45:45;8.80;99.90
20839;DHT22;10580;51.092;6.828;2023-02-02T13:48:21;8.80;99.90
20839;DHT22;10580;51.092;6.828;2023-02-02T13:51:05;8.80;99.90
20839;DHT22;10580;51.092;6.828;2023-02-02T13:56:32;8.80;99.90
20839;DHT22;10580;51.092;6.828;2023-02-02T14:19:56;8.80;99.90
20839;DHT22;10580;51.092;6.828;2023-02-02T14:27:58;9.00;99.90
20839;DHT22;10580;51.092;6.828;2023-02-02T14:47:50;8.80;99.90
20839;DHT22;10580;51.092;6.828;2023-02-02T14:56:06;9.00;99.90
20839;DHT22;10580;51.092;6.828;2023-02-02T14:59:13;8.90;99.90
20839;DHT22;10580;51.092;6.828;2023-02-02T15:01:34;8.90;99.90
20839;DHT22;10580;51.092;6.828;2023-02-02T15:13:36;9.00;99.90
20839;DHT22;10580;51.092;6.828;2023-02-02T15:32:37;9.00;99.90
20839;DHT22;10580;51.092;6.828;2023-02-02T15:35:16;9.00;99.90
20839;DHT22;10580;51.092;6.828;2023-02-02T15:37:52;9.00;99.90
20839;DHT22;10580;51.092;6.828;2023-02-02T15:40:29;9.00;99.90
20839;DHT22;10580;51.092;6.828;2023-02-02T15:43:05;9.00;99.90
20839;DHT22;10580;51.092;6.828;2023-02-02T15:45:49;9.00;99.90
20839;DHT22;10580;51.092;6.828;2023-02-02T15:50:45;9.00;99.90
20839;DHT22;10580;51.092;6.828;2023-02-02T15:53:17;8.90;99.90
20839;DHT22;10580;51.092;6.828;2023-02-02T15:55:44;9.00;99.90
20839;DHT22;10580;51.092;6.828;2023-02-02T15:58:23;9.00;99.90
20839;DHT22;10580;51.092;6.828;2023-02-02T16:01:14;8.90;99.90
20839;DHT22;10580;51.092;6.828;2023-02-02T16:04:13;8.90;99.90
20839;DHT22;10580;51.092;6.828;2023-02-02T16:06:43;9.00;99.90
20839;DHT22;10580;51.092;6.828;2023-02-02T16:09:32;9.00;99.90
20839;DHT22;10580;51.092;6.828;2023-02-02T16:11:59;9.00;99.90
20839;DHT22;10580;51.092;6.828;2023-02-02T16:14:29;8.90;99.90
20839;DHT22;10580;51.092;6.828;2023-02-02T16:20:23;8.90;99.90
20839;DHT22;10580;51.092;6.828;2023-02-02T16:33:43;8.90;99.90
20839;DHT22;10580;51.092;6.828;2023-02-02T16:39:39;8.90;99.90
20839;DHT22;10580;51.092;6.828;2023-02-02T16:42:09;8.80;99.90
20839;DHT22;10580;51.092;6.828;2023-02-02T16:44:44;8.80;99.90
20839;DHT22;10580;51.092;6.828;2023-02-02T16:47:38;8.70;99.90
20839;DHT22;10580;51.092;6.828;2023-02-02T16:50:40;8.60;99.90
20839;DHT22;10580;51.092;6.828;2023-02-02T16:56:41;8.50;99.90
20839;DHT22;10580;51.092;6.828;2023-02-02T16:59:23;8.30;99.90
20839;DHT22;10580;51.092;6.828;2023-02-02T17:01:56;8.30;99.90
20839;DHT22;10580;51.092;6.828;2023-02-02T17:04:26;8.30;99.90
20839;DHT22;10580;51.092;6.828;2023-02-02T17:06:57;8.20;99.90
20839;DHT22;10580;51.092;6.828;2023-02-02T17:09:45;8.20;99.90
20839;DHT22;10580;51.092;6.828;2023-02-02T17:20:34;8.10;99.90
20839;DHT22;10580;51.092;6.828;2023-02-02T17:23:33;8.00;99.90
20839;DHT22;10580;51.092;6.828;2023-02-02T17:26:07;7.90;99.90
20839;DHT22;10580;51.092;6.828;2023-02-02T17:28:53;7.90;99.90
20839;DHT22;10580;51.092;6.828;2023-02-02T17:31:29;7.90;99.90
20839;DHT22;10580;51.092;6.828;2023-02-02T17:33:55;7.90;99.90
20839;DHT22;10580;51.092;6.828;2023-02-02T17:36:26;7.90;99.90
20839;DHT22;10580;51.092;6.828;2023-02-02T17:38:54;7.80;99.90
20839;DHT22;10580;51.092;6.828;2023-02-02T17:41:27;7.80;99.90
20839;DHT22;10580;51.092;6.828;2023-02-02T17:43:53;7.90;99.90
20839;DHT22;10580;51.092;6.828;2023-02-02T17:46:18;7.80;99.90
20839;DHT22;10580;51.092;6.828;2023-02-02T17:48:44;7.80;99.90
20839;DHT22;10580;51.092;6.828;2023-02-02T17:51:16;7.80;99.90
20839;DHT22;10580;51.092;6.828;2023-02-02T17:53:42;7.80;99.90
20839;DHT22;10580;51.092;6.828;2023-02-02T17:56:08;7.80;99.90
20839;DHT22;10580;51.092;6.828;2023-02-02T17:58:34;7.90;99.90
20839;DHT22;10580;51.092;6.828;2023-02-02T18:01:02;7.80;99.90
20839;DHT22;10580;51.092;6.828;2023-02-02T18:03:34;7.80;99.90
20839;DHT22;10580;51.092;6.828;2023-02-02T18:06:13;7.90;99.90
20839;DHT22;10580;51.092;6.828;2023-02-02T18:08:39;7.80;99.90
20839;DHT22;10580;51.092;6.828;2023-02-02T18:11:05;7.80;99.90
20839;DHT22;10580;51.092;6.828;2023-02-02T18:13:31;7.80;99.90
20839;DHT22;10580;51.092;6.828;2023-02-02T18:15:56;7.80;99.90
20839;DHT22;10580;51.092;6.828;2023-02-02T18:18:23;7.80;99.90
20839;DHT22;10580;51.092;6.828;2023-02-02T18:20:49;7.80;99.90
20839;DHT22;10580;51.092;6.828;2023-02-02T18:23:17;7.80;99.90
20839;DHT22;10580;51.092;6.828;2023-02-02T18:25:43;7.80;99.90
20839;DHT22;10580;51.092;6.828;2023-02-02T18:28:11;7.80;99.90
20839;DHT22;10580;51.092;6.828;2023-02-02T18:30:40;7.80;99.90
20839;DHT22;10580;51.092;6.828;2023-02-02T18:33:52;7.80;99.90
20839;DHT22;10580;51.092;6.828;2023-02-02T18:36:20;7.90;99.90
20839;DHT22;10580;51.092;6.828;2023-02-02T18:38:55;7.90;99.90
20839;DHT22;10580;51.092;6.828;2023-02-02T18:41:20;7.90;99.90
20839;DHT22;10580;51.092;6.828;2023-02-02T18:43:46;7.90;99.90
20839;DHT22;10580;51.092;6.828;2023-02-02T18:46:14;7.90;99.90
20839;DHT22;10580;51.092;6.828;2023-02-02T18:48:41;7.90;99.90
20839;DHT22;10580;51.092;6.828;2023-02-02T18:51:18;7.90;99.90
20839;DHT22;10580;51.092;6.828;2023-02-02T18:53:46;7.90;99.90
20839;DHT22;10580;51.092;6.828;2023-02-02T18:56:12;8.00;99.90
20839;DHT22;10580;51.092;6.828;2023-02-02T18:58:39;7.90;99.90
20839;DHT22;10580;51.092;6.828;2023-02-02T19:01:06;7.90;99.90
20839;DHT22;10580;51.092;6.828;2023-02-02T19:03:33;7.90;99.90
20839;DHT22;10580;51.092;6.828;2023-02-02T19:06:03;8.00;99.90
20839;DHT22;10580;51.092;6.828;2023-02-02T19:08:47;8.00;99.90
20839;DHT22;10580;51.092;6.828;2023-02-02T19:11:18;8.00;99.90
20839;DHT22;10580;51.092;6.828;2023-02-02T19:13:44;8.00;99.90
20839;DHT22;10580;51.092;6.828;2023-02-02T19:16:30;8.10;99.90
20839;DHT22;10580;51.092;6.828;2023-02-02T19:19:06;8.10;99.90
20839;DHT22;10580;51.092;6.828;2023-02-02T19:21:32;8.10;99.90
20839;DHT22;10580;51.092;6.828;2023-02-02T19:23:59;8.10;99.90
20839;DHT22;10580;51.092;6.828;2023-02-02T19:26:26;8.10;99.90
20839;DHT22;10580;51.092;6.828;2023-02-02T19:36:01;8.20;99.90
20839;DHT22;10580;51.092;6.828;2023-02-02T19:38:28;8.20;99.90
20839;DHT22;10580;51.092;6.828;2023-02-02T19:40:54;8.20;99.90
20839;DHT22;10580;51.092;6.828;2023-02-02T19:58:58;8.40;99.90
20839;DHT22;10580;51.092;6.828;2023-02-02T20:07:40;8.40;99.90
20839;DHT22;10580;51.092;6.828;2023-02-02T20:10:36;8.40;99.90
20839;DHT22;10580;51.092;6.828;2023-02-02T20:13:13;8.40;99.90
20839;DHT22;10580;51.092;6.828;2023-02-02T20:15:52;8.40;99.90
20839;DHT22;10580;51.092;6.828;2023-02-02T20:18:42;8.40;99.90
20839;DHT22;10580;51.092;6.828;2023-02-02T20:24:27;8.30;99.90
20839;DHT22;10580;51.092;6.828;2023-02-02T20:27:10;8.40;99.90
20839;DHT22;10580;51.092;6.828;2023-02-02T20:29:42;8.40;99.90
20839;DHT22;10580;51.092;6.828;2023-02-02T20:35:41;8.40;99.90
20839;DHT22;10580;51.092;6.828;2023-02-02T20:38:26;8.40;99.90
20839;DHT22;10580;51.092;6.828;2023-02-02T20:40:56;8.40;99.90
20839;DHT22;10580;51.092;6.828;2023-02-02T20:43:22;8.40;99.90